Time;durP1;ratioP1;P1;durP2;ratioP2;P2;SDS_P1;SDS_P2;PMS_P1;PMS_P2;Temp;Humidity;BMP_temperature;BMP_pressure;BME280_temperature;BME280_humidity;BME280_pressure;Samples;Min_cycle;Max_cycle;Signal;HPM_P1;HPM_P2
2022/10/26 00:00:24;;;;;;;;;;;;;;;15.44;83.10;100542.22;5037230;28;929;-63
2022/10/26 00:02:49;;;;;;;;;;;;;;;15.44;83.41;100547.72;5037334;28;1008;-63
2022/10/26 00:05:15;;;;;;;;;;;;;;;15.43;83.16;100546.09;5037015;28;1296;-64
2022/10/26 00:07:40;;;;;;;;;;;;;;;15.44;82.98;100544.16;5036779;28;991;-63
2022/10/26 00:10:05;;;;;;;;;;;;;;;15.43;83.48;100539.75;5036891;28;1072;-64
2022/10/26 00:12:30;;;;;;;;;;;;;;;15.42;83.11;100541.69;5037166;28;1967;-64
2022/10/26 00:14:55;;;;;;;;;;;;;;;15.42;83.06;100538.94;5036907;28;1290;-63
2022/10/26 00:17:21;;;;;;;;;;;;;;;15.42;83.25;100532.59;5036632;28;988;-64
2022/10/26 00:19:46;;;;;;;;;;;;;;;15.41;83.18;100537.31;5036914;28;806;-64
2022/10/26 00:22:11;;;;;;;;;;;;;;;15.41;83.56;100539.25;5036796;28;1094;-63
2022/10/26 00:24:36;;;;;;;;;;;;;;;15.41;83.10;100542.00;5036688;28;1274;-63
2022/10/26 00:27:01;;;;;;;;;;;;;;;15.40;83.24;100545.88;5036439;28;999;-64
2022/10/26 00:29:26;;;;;;;;;;;;;;;15.39;83.45;100534.06;5036852;28;802;-63
2022/10/26 00:31:51;;;;;;;;;;;;;;;15.39;83.38;100539.59;5036696;28;1886;-64
2022/10/26 00:34:17;;;;;;;;;;;;;;;15.39;83.13;100539.59;5036531;28;1315;-63
2022/10/26 00:36:42;;;;;;;;;;;;;;;15.39;83.36;100544.28;5036519;28;857;-63
2022/10/26 00:39:11;;;;;;;;;;;;;;;15.39;83.54;100545.09;5036457;28;900;-63
2022/10/26 00:41:36;;;;;;;;;;;;;;;15.37;83.50;100539.06;5036509;28;1071;-63
2022/10/26 00:44:21;;;;;;;;;;;;;;;15.38;83.31;100528.88;5036552;28;1216;-64
2022/10/26 00:46:46;;;;;;;;;;;;;;;15.37;82.84;100533.56;5036045;28;2186;-64
2022/10/26 00:49:18;;;;;;;;;;;;;;;15.38;83.11;100542.66;5036362;28;1004;-64
2022/10/26 00:51:47;;;;;;;;;;;;;;;15.37;83.26;100536.31;5036358;28;1898;-63
2022/10/26 00:54:15;;;;;;;;;;;;;;;15.37;83.05;100541.00;5036188;28;1214;-63
2022/10/26 00:56:41;;;;;;;;;;;;;;;15.36;83.01;100542.13;5035923;28;794;-63
2022/10/26 00:59:08;;;;;;;;;;;;;;;15.36;83.04;100539.38;5036276;28;909;-63
2022/10/26 01:01:35;;;;;;;;;;;;;;;15.35;83.29;100538.56;5036291;28;840;-63
2022/10/26 01:04:00;;;;;;;;;;;;;;;15.35;83.25;100546.84;5035812;28;1240;-63
2022/10/26 01:06:27;;;;;;;;;;;;;;;15.37;82.79;100546.53;5035719;28;889;-63
2022/10/26 01:08:53;;;;;;;;;;;;;;;15.34;83.24;100545.19;5035290;28;1067;-63
2022/10/26 01:11:18;;;;;;;;;;;;;;;15.32;83.54;100533.66;5035873;28;1898;-63
2022/10/26 01:13:44;;;;;;;;;;;;;;;15.34;83.70;100536.09;5035825;28;1209;-63
2022/10/26 01:16:24;;;;;;;;;;;;;;;15.34;83.01;100531.41;5035510;28;1000;-63
2022/10/26 01:18:58;;;;;;;;;;;;;;;15.32;82.96;100527.31;5035843;28;992;-63
2022/10/26 01:21:29;;;;;;;;;;;;;;;15.33;83.21;100528.97;5035779;28;1038;-63
2022/10/26 01:23:54;;;;;;;;;;;;;;;15.33;83.43;100526.19;5035617;28;1202;-63
2022/10/26 01:26:30;;;;;;;;;;;;;;;15.32;82.85;100527.31;5035358;28;881;-63
2022/10/26 01:29:27;;;;;;;;;;;;;;;15.31;83.05;100526.50;5035775;28;834;-63
2022/10/26 01:31:56;;;;;;;;;;;;;;;15.32;82.96;100527.31;5034304;28;1890;-63
2022/10/26 01:34:40;;;;;;;;;;;;;;;15.32;83.07;100510.78;5035664;28;1288;-63
2022/10/26 01:37:11;;;;;;;;;;;;;;;15.29;82.98;100512.25;5035280;28;932;-63
2022/10/26 01:39:38;;;;;;;;;;;;;;;15.30;82.83;100505.59;5035428;28;1004;-63
2022/10/26 01:42:04;;;;;;;;;;;;;;;15.28;82.82;100498.75;5035412;28;864;-64
2022/10/26 01:44:35;;;;;;;;;;;;;;;15.28;82.93;100505.09;5035280;28;1249;-64
2022/10/26 01:47:02;;;;;;;;;;;;;;;15.28;83.00;100501.50;5035140;28;885;-63
2022/10/26 01:49:30;;;;;;;;;;;;;;;15.29;83.09;100503.97;5035329;28;959;-63
2022/10/26 01:51:55;;;;;;;;;;;;;;;15.28;82.94;100490.47;5035171;28;1967;-63
2022/10/26 01:54:20;;;;;;;;;;;;;;;15.27;82.56;100491.59;5035296;28;1274;-63
2022/10/26 01:56:49;;;;;;;;;;;;;;;15.26;82.88;100495.50;5034971;28;996;-63
2022/10/26 01:59:32;;;;;;;;;;;;;;;15.25;82.94;100489.16;5035113;28;860;-64
2022/10/26 02:02:00;;;;;;;;;;;;;;;15.26;83.30;100487.22;5035035;28;833;-63
2022/10/26 02:04:32;;;;;;;;;;;;;;;15.27;82.74;100486.09;5034770;28;1668;-64
2022/10/26 02:07:01;;;;;;;;;;;;;;;15.24;83.48;100486.69;5034784;28;840;-63
2022/10/26 02:09:44;;;;;;;;;;;;;;;15.26;83.14;100487.22;5035030;28;805;-63
2022/10/26 02:12:13;;;;;;;;;;;;;;;15.24;83.26;100476.50;5034844;28;1963;-63
2022/10/26 02:14:47;;;;;;;;;;;;;;;15.25;83.06;100480.88;5034693;28;1217;-64
2022/10/26 02:17:17;;;;;;;;;;;;;;;15.23;82.86;100471.28;5034452;28;864;-63
2022/10/26 02:19:42;;;;;;;;;;;;;;;15.23;83.42;100466.59;5035005;28;886;-64
2022/10/26 02:22:15;;;;;;;;;;;;;;;15.23;82.69;100474.84;5033836;28;858;-63
2022/10/26 02:24:41;;;;;;;;;;;;;;;15.22;83.22;100464.16;5034598;28;1187;-64
2022/10/26 02:27:07;;;;;;;;;;;;;;;15.22;83.29;100467.75;5034430;28;964;-63
2022/10/26 02:29:33;;;;;;;;;;;;;;;15.22;82.91;100464.16;5034462;28;952;-64
2022/10/26 02:32:00;;;;;;;;;;;;;;;15.23;82.82;100465.78;5034493;28;1898;-63
2022/10/26 02:34:27;;;;;;;;;;;;;;;15.21;83.28;100460.59;5034471;28;1209;-63
2022/10/26 02:36:55;;;;;;;;;;;;;;;15.20;82.83;100458.97;5034235;28;806;-63
2022/10/26 02:39:20;;;;;;;;;;;;;;;15.20;83.15;100450.69;5034253;28;857;-63
2022/10/26 02:41:47;;;;;;;;;;;;;;;15.20;83.23;100458.13;5034726;28;799;-63
2022/10/26 02:44:15;;;;;;;;;;;;;;;15.20;82.97;100447.09;5034110;28;1224;-64
2022/10/26 02:46:41;;;;;;;;;;;;;;;15.20;82.91;100453.44;5033917;28;1012;-64
2022/10/26 02:49:06;;;;;;;;;;;;;;;15.20;83.38;100447.09;5034211;28;1080;-64
2022/10/26 02:51:34;;;;;;;;;;;;;;;15.19;83.03;100440.78;5033990;28;1902;-63
2022/10/26 02:54:12;;;;;;;;;;;;;;;15.19;83.07;100445.47;5033988;28;1224;-64
2022/10/26 02:56:40;;;;;;;;;;;;;;;15.19;82.79;100454.56;5033724;28;858;-63
2022/10/26 02:59:06;;;;;;;;;;;;;;;15.18;82.76;100441.91;5032837;28;814;-63
2022/10/26 03:01:32;;;;;;;;;;;;;;;15.18;82.80;100447.41;5033860;28;740;-64
2022/10/26 03:03:58;;;;;;;;;;;;;;;15.18;83.28;100449.34;5033600;28;1188;-62
2022/10/26 03:06:23;;;;;;;;;;;;;;;15.17;82.90;100440.28;5033875;28;937;-64
2022/10/26 03:08:49;;;;;;;;;;;;;;;15.18;83.23;100449.34;5033936;28;983;-64
2022/10/26 03:11:14;;;;;;;;;;;;;;;15.16;82.63;100435.88;5033872;28;848;-63
2022/10/26 03:13:39;;;;;;;;;;;;;;;15.17;83.15;100444.97;5033542;28;1963;-64
2022/10/26 03:16:04;;;;;;;;;;;;;;;15.17;83.32;100447.72;5033433;28;893;-64
2022/10/26 03:18:29;;;;;;;;;;;;;;;15.15;82.59;100440.56;5033580;28;1000;-64
2022/10/26 03:20:55;;;;;;;;;;;;;;;15.15;83.04;100446.09;5033488;28;798;-64
2022/10/26 03:23:20;;;;;;;;;;;;;;;15.14;83.14;100430.66;5033404;28;1287;-64
2022/10/26 03:25:45;;;;;;;;;;;;;;;15.16;82.71;100444.16;5033271;28;825;-64
2022/10/26 03:28:10;;;;;;;;;;;;;;;15.15;83.10;100448.03;5033416;28;936;-62
2022/10/26 03:30:35;;;;;;;;;;;;;;;15.14;82.81;100441.69;5033473;28;862;-64
2022/10/26 03:33:00;;;;;;;;;;;;;;;15.14;83.13;100443.66;5032961;28;1897;-63
2022/10/26 03:35:26;;;;;;;;;;;;;;;15.13;82.66;100442.03;5033289;28;1059;-64
2022/10/26 03:37:51;;;;;;;;;;;;;;;15.13;82.75;100445.59;5033323;28;919;-64
2022/10/26 03:40:16;;;;;;;;;;;;;;;15.12;82.83;100437.66;5033322;28;996;-64
2022/10/26 03:42:41;;;;;;;;;;;;;;;15.13;82.73;100445.59;5033269;28;1050;-64
2022/10/26 03:45:07;;;;;;;;;;;;;;;15.13;82.83;100442.03;5033456;28;1177;-64
2022/10/26 03:47:32;;;;;;;;;;;;;;;15.13;83.15;100442.03;5032933;28;1092;-64
2022/10/26 03:49:58;;;;;;;;;;;;;;;15.12;83.29;100443.16;5033177;28;1004;-63
2022/10/26 03:52:24;;;;;;;;;;;;;;;15.11;83.08;100433.25;5033158;28;1894;-64
2022/10/26 03:54:49;;;;;;;;;;;;;;;15.11;82.91;100439.59;5033084;28;1173;-63
2022/10/26 03:57:14;;;;;;;;;;;;;;;15.10;83.32;100443.47;5033059;28;772;-64
2022/10/26 03:59:40;;;;;;;;;;;;;;;15.09;83.28;100439.06;5033086;28;901;-63
2022/10/26 04:02:05;;;;;;;;;;;;;;;15.10;82.86;100437.13;5033255;28;860;-63
2022/10/26 04:04:30;;;;;;;;;;;;;;;15.10;82.92;100439.91;5032972;28;1205;-64
2022/10/26 04:06:55;;;;;;;;;;;;;;;15.09;82.58;100444.59;5032734;28;980;-63
2022/10/26 04:09:20;;;;;;;;;;;;;;;15.19;82.95;100435.25;5033118;28;833;-64
2022/10/26 04:11:45;;;;;;;;;;;;;;;15.20;82.70;100441.59;5033007;28;1961;-64
2022/10/26 04:14:11;;;;;;;;;;;;;;;15.20;82.77;100441.59;5032910;28;1310;-64
2022/10/26 04:16:36;;;;;;;;;;;;;;;15.20;82.81;100441.59;5032767;28;830;-64
2022/10/26 04:19:01;;;;;;;;;;;;;;;15.20;82.76;100436.91;5032821;28;2012;-64
2022/10/26 04:21:26;;;;;;;;;;;;;;;15.20;83.19;100438.84;5032888;28;1456;-63
2022/10/26 04:23:51;;;;;;;;;;;;;;;15.20;83.28;100436.91;5032924;28;1279;-62
2022/10/26 04:26:17;;;;;;;;;;;;;;;15.19;83.61;100440.78;5032808;28;979;-64
2022/10/26 04:28:42;;;;;;;;;;;;;;;15.20;83.14;100434.13;5032823;28;1050;-64
2022/10/26 04:31:07;;;;;;;;;;;;;;;15.20;83.64;100434.13;5032908;28;888;-64
2022/10/26 04:33:32;;;;;;;;;;;;;;;15.20;83.40;100431.38;5032536;28;1891;-63
2022/10/26 04:35:59;;;;;;;;;;;;;;;15.21;83.41;100434.97;5032557;28;988;-64
2022/10/26 04:38:24;;;;;;;;;;;;;;;15.22;83.42;100436.59;5032767;28;837;-63
2022/10/26 04:40:49;;;;;;;;;;;;;;;15.21;83.26;100433.00;5032727;28;991;-63
2022/10/26 04:43:14;;;;;;;;;;;;;;;15.22;83.48;100431.91;5032684;28;1209;-63
2022/10/26 04:45:40;;;;;;;;;;;;;;;15.21;83.84;100430.25;5036025;28;992;-63
2022/10/26 04:48:06;;;;;;;;;;;;;;;15.23;83.47;100429.91;5036173;28;790;-64
2022/10/26 04:50:31;;;;;;;;;;;;;;;15.22;83.45;100429.13;5036378;28;1332;-63
2022/10/26 04:52:56;;;;;;;;;;;;;;;15.23;83.64;100429.91;5036283;28;1894;-63
2022/10/26 04:55:22;;;;;;;;;;;;;;;15.22;83.87;100425.56;5036440;28;836;-64
2022/10/26 04:57:47;;;;;;;;;;;;;;;15.21;84.11;100422.00;5036171;28;1012;-63
2022/10/26 05:00:12;;;;;;;;;;;;;;;15.22;83.99;100429.13;5036355;28;1050;-61
2022/10/26 05:02:38;;;;;;;;;;;;;;;15.23;83.73;100422.47;5036229;28;991;-63
2022/10/26 05:05:03;;;;;;;;;;;;;;;15.22;83.73;100426.38;5035492;28;1217;-63
2022/10/26 05:07:28;;;;;;;;;;;;;;;15.22;83.91;100426.38;5035595;28;980;-63
2022/10/26 05:09:53;;;;;;;;;;;;;;;15.22;84.16;100426.38;5035622;28;889;-63
2022/10/26 05:12:18;;;;;;;;;;;;;;;15.22;84.31;100423.63;5035826;28;1898;-63
2022/10/26 05:14:44;;;;;;;;;;;;;;;15.22;84.06;100429.13;5035801;28;1319;-63
2022/10/26 05:17:09;;;;;;;;;;;;;;;15.23;83.98;100416.13;5035780;28;888;-62
2022/10/26 05:19:34;;;;;;;;;;;;;;;15.24;83.92;100426.84;5035819;28;1692;-63
2022/10/26 05:21:59;;;;;;;;;;;;;;;15.23;83.99;100424.41;5035760;28;789;-62
2022/10/26 05:24:24;;;;;;;;;;;;;;;15.23;84.41;100424.41;5035867;28;1197;-64
2022/10/26 05:26:49;;;;;;;;;;;;;;;15.22;84.19;100423.63;5035407;28;989;-63
2022/10/26 05:29:14;;;;;;;;;;;;;;;15.22;84.10;100426.38;5035711;28;806;-63
2022/10/26 05:31:40;;;;;;;;;;;;;;;15.22;84.22;100422.81;5035485;28;1902;-63
2022/10/26 05:34:05;;;;;;;;;;;;;;;15.22;84.22;100431.06;5035496;28;1228;-63
2022/10/26 05:36:30;;;;;;;;;;;;;;;15.20;84.31;100425.88;5035134;28;968;-63
2022/10/26 05:38:59;;;;;;;;;;;;;;;15.21;84.53;100430.25;5035415;28;846;-63
2022/10/26 05:41:24;;;;;;;;;;;;;;;15.21;84.76;100423.94;5035461;28;868;-63
2022/10/26 05:43:49;;;;;;;;;;;;;;;15.21;84.42;100423.94;5035313;28;1291;-63
2022/10/26 05:46:14;;;;;;;;;;;;;;;15.22;84.46;100428.31;5035152;28;924;-63
2022/10/26 05:48:39;;;;;;;;;;;;;;;14.87;84.55;100381.19;5035194;28;983;-63
2022/10/26 05:51:04;;;;;;;;;;;;;;;15.21;84.04;100429.44;5035303;28;984;-63
2022/10/26 05:53:30;;;;;;;;;;;;;;;15.20;84.84;100433.31;5035096;28;1961;-63
2022/10/26 05:55:55;;;;;;;;;;;;;;;15.20;84.28;100430.56;5034720;28;979;-63
2022/10/26 05:58:20;;;;;;;;;;;;;;;15.20;84.83;100439.66;5035127;28;1048;-63
2022/10/26 06:01:00;;;;;;;;;;;;;;;15.20;85.06;100442.41;5035219;28;987;-63
2022/10/26 06:03:41;;;;;;;;;;;;;;;15.20;84.78;100439.66;5034899;28;1316;-63
2022/10/26 06:06:06;;;;;;;;;;;;;;;15.20;84.67;100447.09;5034734;28;727;-62
2022/10/26 06:08:31;;;;;;;;;;;;;;;15.20;84.72;100447.09;5034951;28;1030;-63
2022/10/26 06:11:01;;;;;;;;;;;;;;;15.19;84.56;100445.47;5034813;28;1923;-63
2022/10/26 06:13:27;;;;;;;;;;;;;;;15.19;84.58;100443.53;5034769;28;1914;-63
2022/10/26 06:16:07;;;;;;;;;;;;;;;15.19;84.72;100442.72;5034370;28;1215;-63
2022/10/26 06:18:48;;;;;;;;;;;;;;;15.19;84.58;100439.97;5034848;28;984;-63
2022/10/26 06:21:22;;;;;;;;;;;;;;;15.20;84.66;100449.88;5034852;28;782;-63
2022/10/26 06:23:52;;;;;;;;;;;;;;;15.20;84.89;100449.88;5034629;28;1210;-63
2022/10/26 06:26:35;;;;;;;;;;;;;;;15.19;84.69;100451.00;5034280;28;976;-63
2022/10/26 06:29:21;;;;;;;;;;;;;;;15.18;84.79;100458.44;5034627;28;988;-63
2022/10/26 06:31:46;;;;;;;;;;;;;;;15.19;84.59;100453.75;5034404;28;1890;-63
2022/10/26 06:34:21;;;;;;;;;;;;;;;15.19;84.90;100451.81;5034461;28;1213;-63
2022/10/26 06:36:48;;;;;;;;;;;;;;;15.19;85.18;100462.84;5034075;28;1248;-63
2022/10/26 06:39:14;;;;;;;;;;;;;;;15.19;84.74;100456.50;5034375;28;1011;-63
2022/10/26 06:41:40;;;;;;;;;;;;;;;15.20;84.54;100461.72;5034307;28;905;-63
2022/10/26 06:44:05;;;;;;;;;;;;;;;15.19;84.70;100462.84;5034191;28;1268;-62
2022/10/26 06:46:35;;;;;;;;;;;;;;;15.19;84.42;100462.84;5033950;28;988;-63
2022/10/26 06:49:06;;;;;;;;;;;;;;;15.18;84.85;100461.19;5034096;28;1862;-63
2022/10/26 06:51:36;;;;;;;;;;;;;;;15.19;84.84;100462.03;5034278;28;1894;-62
2022/10/26 06:54:07;;;;;;;;;;;;;;;15.19;85.09;100462.84;5034153;28;1210;-63
2022/10/26 06:56:32;;;;;;;;;;;;;;;15.19;84.90;100471.09;5033894;28;790;-63
2022/10/26 06:59:05;;;;;;;;;;;;;;;15.19;85.17;100470.28;5033967;28;858;-63
2022/10/26 07:01:30;;;;;;;;;;;;;;;15.19;84.99;100468.34;5033989;28;961;-62
2022/10/26 07:03:55;;;;;;;;;;;;;;;15.19;84.79;100467.53;5033600;28;1187;-62
2022/10/26 07:06:21;;;;;;;;;;;;;;;15.19;85.17;100473.06;5033315;28;782;-64
2022/10/26 07:08:46;;;;;;;;;;;;;;;15.19;84.69;100473.06;5033564;28;995;-63
2022/10/26 07:11:11;;;;;;;;;;;;;;;15.18;85.10;100472.22;5033786;28;1355;-64
2022/10/26 07:13:36;;;;;;;;;;;;;;;15.19;84.79;100475.81;5033701;28;1890;-63
2022/10/26 07:16:01;;;;;;;;;;;;;;;15.19;84.50;100482.13;5033457;28;1028;-63
2022/10/26 07:18:26;;;;;;;;;;;;;;;15.20;85.05;100471.94;5033575;28;893;-63
2022/10/26 07:20:51;;;;;;;;;;;;;;;15.19;84.66;100484.06;5033644;28;1039;-63
2022/10/26 07:23:17;;;;;;;;;;;;;;;15.18;85.12;100483.25;5033645;28;1173;-63
2022/10/26 07:25:42;;;;;;;;;;;;;;;15.19;84.79;100484.91;5033501;28;894;-62
2022/10/26 07:28:09;;;;;;;;;;;;;;;15.19;84.60;100489.59;5033314;28;1015;-63
2022/10/26 07:30:34;;;;;;;;;;;;;;;15.19;84.58;100479.38;5033430;28;842;-62
2022/10/26 07:33:01;;;;;;;;;;;;;;;15.19;84.81;100481.31;5033215;28;1953;-63
2022/10/26 07:35:26;;;;;;;;;;;;;;;15.19;85.24;100487.66;5033477;28;1098;-64
2022/10/26 07:37:54;;;;;;;;;;;;;;;15.20;84.66;100486.53;5033326;28;832;-64
2022/10/26 07:40:19;;;;;;;;;;;;;;;15.20;85.23;100497.56;5033421;28;797;-63
2022/10/26 07:42:44;;;;;;;;;;;;;;;15.20;84.56;100497.56;5033370;28;885;-63
2022/10/26 07:45:10;;;;;;;;;;;;;;;15.20;85.15;100494.81;5033154;28;1178;-63
2022/10/26 07:47:35;;;;;;;;;;;;;;;15.21;84.72;100498.38;5033008;28;738;-63
2022/10/26 07:50:00;;;;;;;;;;;;;;;15.21;84.66;100484.59;5033344;28;929;-64
2022/10/26 07:52:25;;;;;;;;;;;;;;;15.22;84.63;100484.28;5033236;28;1959;-63
2022/10/26 07:54:50;;;;;;;;;;;;;;;15.22;85.40;100488.97;5033209;28;1318;-63
2022/10/26 07:57:16;;;;;;;;;;;;;;;15.22;84.43;100487.03;5032835;28;1043;-63
2022/10/26 07:59:41;;;;;;;;;;;;;;;15.22;84.66;100483.47;5033180;28;841;-63
2022/10/26 08:02:08;;;;;;;;;;;;;;;15.22;84.68;100481.53;5033161;28;1047;-63
2022/10/26 08:04:33;;;;;;;;;;;;;;;15.22;85.04;100483.47;5032971;28;1203;-62
2022/10/26 08:06:58;;;;;;;;;;;;;;;15.22;85.12;100481.53;5032791;28;1043;-64
2022/10/26 08:09:23;;;;;;;;;;;;;;;15.23;84.73;100490.59;5033230;28;786;-63
2022/10/26 08:11:48;;;;;;;;;;;;;;;15.23;85.07;100502.44;5032966;28;1902;-63
2022/10/26 08:14:13;;;;;;;;;;;;;;;15.24;85.12;100500.50;5033013;28;1229;-63
2022/10/26 08:16:39;;;;;;;;;;;;;;;15.24;84.65;100493.03;5032708;28;991;-63
2022/10/26 08:19:04;;;;;;;;;;;;;;;15.24;85.08;100492.22;5033860;28;824;-63
2022/10/26 08:21:29;;;;;;;;;;;;;;;15.24;84.50;100482.00;5037027;28;956;-62
2022/10/26 08:23:54;;;;;;;;;;;;;;;15.25;84.68;100494.66;5036758;28;1217;-63
2022/10/26 08:26:20;;;;;;;;;;;;;;;15.25;85.28;100494.66;5036607;28;996;-63
2022/10/26 08:28:47;;;;;;;;;;;;;;;15.26;85.13;100492.72;5036844;28;782;-64
2022/10/26 08:31:12;;;;;;;;;;;;;;;15.26;85.04;100490.78;5036615;28;1070;-63
2022/10/26 08:33:37;;;;;;;;;;;;;;;15.25;84.95;100491.09;5036177;28;1894;-64
2022/10/26 08:36:04;;;;;;;;;;;;;;;15.26;85.10;100490.78;5036475;28;1008;-63
2022/10/26 08:38:29;;;;;;;;;;;;;;;15.27;84.76;100484.16;5036595;28;966;-63
2022/10/26 08:40:55;;;;;;;;;;;;;;;15.26;84.91;100477.00;5036654;28;862;-63
2022/10/26 08:43:21;;;;;;;;;;;;;;;15.27;85.43;100475.88;5036373;28;1728;-63
2022/10/26 08:45:51;;;;;;;;;;;;;;;15.27;84.90;100475.06;5036254;28;867;-63
2022/10/26 08:48:18;;;;;;;;;;;;;;;15.29;84.59;100470.06;5036591;28;829;-63
2022/10/26 08:50:47;;;;;;;;;;;;;;;15.27;84.64;100470.38;5036369;28;937;-64
2022/10/26 08:53:31;;;;;;;;;;;;;;;15.29;84.63;100465.34;5036237;28;1894;-63
2022/10/26 08:56:03;;;;;;;;;;;;;;;15.30;85.06;100461.47;5036032;28;881;-62
2022/10/26 08:58:33;;;;;;;;;;;;;;;15.31;84.74;100467.81;5036166;28;1813;-64
2022/10/26 09:00:58;;;;;;;;;;;;;;;15.30;84.83;100464.22;5035956;28;1385;-64
2022/10/26 09:03:24;;;;;;;;;;;;;;;15.31;84.75;100473.31;5035702;28;1444;-63
2022/10/26 09:06:07;;;;;;;;;;;;;;;15.31;85.35;100478.84;5035416;28;1513;-64
2022/10/26 09:08:51;;;;;;;;;;;;;;;15.31;85.30;100473.31;5033028;28;1436;-63
2022/10/26 09:11:19;;;;;;;;;;;;;;;15.30;84.70;100471.69;5033592;28;1546;-63
2022/10/26 09:14:03;;;;;;;;;;;;;;;15.30;84.82;100475.25;5035694;28;1889;-63
2022/10/26 09:16:46;;;;;;;;;;;;;;;15.30;84.52;100475.25;5034592;28;1628;-63
2022/10/26 09:19:23;;;;;;;;;;;;;;;15.31;84.95;100476.09;5035451;28;1351;-63
2022/10/26 09:22:07;;;;;;;;;;;;;;;15.31;84.67;100478.84;5035426;28;1579;-63
2022/10/26 09:24:36;;;;;;;;;;;;;;;15.31;84.60;100489.88;5035298;28;2256;-64
2022/10/26 09:27:19;;;;;;;;;;;;;;;15.30;84.75;100489.06;5035107;28;1620;-63
2022/10/26 09:29:45;;;;;;;;;;;;;;;15.30;85.04;100491.81;5033845;28;1525;-64
2022/10/26 09:32:17;;;;;;;;;;;;;;;15.32;84.82;100497.00;5035607;28;1930;-64
2022/10/26 09:34:46;;;;;;;;;;;;;;;15.31;85.19;100507.19;5035655;28;1203;-64
2022/10/26 09:37:27;;;;;;;;;;;;;;;15.30;85.13;100502.84;5035414;28;936;-64
2022/10/26 09:39:57;;;;;;;;;;;;;;;15.31;85.01;100509.97;5035564;28;857;-63
2022/10/26 09:42:28;;;;;;;;;;;;;;;15.32;84.52;100511.59;5035736;28;862;-63
2022/10/26 09:45:13;;;;;;;;;;;;;;;15.32;85.21;100513.53;5035515;28;1280;-64
2022/10/26 09:47:41;;;;;;;;;;;;;;;15.31;84.59;100515.47;5034927;28;1980;-64
2022/10/26 09:50:15;;;;;;;;;;;;;;;15.31;85.01;100503.66;5035359;28;909;-63
2022/10/26 09:52:41;;;;;;;;;;;;;;;15.33;85.08;100504.97;5035311;28;1953;-64
2022/10/26 09:55:09;;;;;;;;;;;;;;;15.33;85.10;100517.94;5035127;28;1342;-63
2022/10/26 09:57:34;;;;;;;;;;;;;;;15.33;84.74;100521.50;5034977;28;1011;-63
2022/10/26 09:59:59;;;;;;;;;;;;;;;15.34;85.05;100525.91;5035022;28;992;-63
2022/10/26 10:02:31;;;;;;;;;;;;;;;15.34;84.70;100531.41;5035249;28;797;-63
2022/10/26 10:04:56;;;;;;;;;;;;;;;15.34;84.88;100531.41;5034859;28;1260;-63
2022/10/26 10:07:21;;;;;;;;;;;;;;;15.34;84.82;100525.06;5034487;28;1274;-64
2022/10/26 10:10:04;;;;;;;;;;;;;;;15.35;84.50;100522.00;5034526;28;1659;-63
2022/10/26 10:12:29;;;;;;;;;;;;;;;15.35;84.92;100515.69;5034182;28;1898;-64
2022/10/26 10:14:58;;;;;;;;;;;;;;;15.36;84.95;100520.06;5034397;28;1583;-63
2022/10/26 10:17:23;;;;;;;;;;;;;;;15.37;85.08;100527.22;5034126;28;1281;-64
2022/10/26 10:19:49;;;;;;;;;;;;;;;15.38;84.87;100526.91;5034403;28;1327;-62
2022/10/26 10:22:14;;;;;;;;;;;;;;;15.39;84.74;100528.56;5034416;28;1551;-63
2022/10/26 10:24:41;;;;;;;;;;;;;;;15.39;84.54;100516.69;5034624;28;1246;-63
2022/10/26 10:27:13;;;;;;;;;;;;;;;15.39;84.58;100520.28;5033817;28;1555;-64
2022/10/26 10:29:40;;;;;;;;;;;;;;;15.40;85.09;100519.13;5034584;28;901;-63
2022/10/26 10:32:05;;;;;;;;;;;;;;;15.40;84.77;100519.13;5034373;28;1890;-63
2022/10/26 10:34:31;;;;;;;;;;;;;;;15.41;84.65;100519.94;5034378;28;1209;-64
2022/10/26 10:36:58;;;;;;;;;;;;;;;15.41;84.79;100522.69;5034233;28;802;-63
2022/10/26 10:39:37;;;;;;;;;;;;;;;15.39;84.89;100517.53;5034496;28;866;-63
2022/10/26 10:42:03;;;;;;;;;;;;;;;15.41;84.79;100511.66;5033531;28;798;-63
2022/10/26 10:44:30;;;;;;;;;;;;;;;15.41;84.53;100501.44;5034102;28;1898;-63
2022/10/26 10:47:03;;;;;;;;;;;;;;;15.42;85.02;100505.03;5034290;28;849;-63
2022/10/26 10:49:29;;;;;;;;;;;;;;;15.42;84.81;100510.53;5034161;28;889;-63
2022/10/26 10:51:55;;;;;;;;;;;;;;;15.42;84.83;100516.88;5034033;28;1890;-64
2022/10/26 10:54:31;;;;;;;;;;;;;;;15.43;84.44;100512.19;5034105;28;1254;-64
2022/10/26 10:57:08;;;;;;;;;;;;;;;15.42;85.00;100508.59;5033908;28;862;-64
2022/10/26 10:59:43;;;;;;;;;;;;;;;15.43;84.63;100515.75;5034053;28;996;-63
2022/10/26 11:02:10;;;;;;;;;;;;;;;15.44;84.83;100520.16;5033994;28;1000;-63
2022/10/26 11:04:47;;;;;;;;;;;;;;;15.45;84.73;100516.25;5033738;28;1259;-62
2022/10/26 11:07:13;;;;;;;;;;;;;;;15.46;84.66;100517.09;5033669;28;1314;-63
2022/10/26 11:09:40;;;;;;;;;;;;;;;15.45;84.03;100512.69;5033260;28;1647;-64
2022/10/26 11:12:09;;;;;;;;;;;;;;;15.44;84.23;100511.88;5032975;28;1945;-62
2022/10/26 11:14:37;;;;;;;;;;;;;;;15.46;84.85;100525.34;5033562;28;1543;-63
2022/10/26 11:17:10;;;;;;;;;;;;;;;15.45;84.86;100527.28;5032996;28;1423;-64
2022/10/26 11:20:01;;;;;;;;;;;;;;;15.46;84.69;100526.16;5033282;28;1621;-64
2022/10/26 11:22:39;;;;;;;;;;;;;;;15.45;84.75;100530.06;5028570;28;1312;-63
2022/10/26 11:25:10;;;;;;;;;;;;;;;15.46;84.96;100525.34;5031124;28;1374;-62
2022/10/26 11:27:44;;;;;;;;;;;;;;;15.46;84.92;100531.69;5033083;28;1555;-63
2022/10/26 11:30:16;;;;;;;;;;;;;;;15.46;84.81;100526.16;5033466;28;889;-63
2022/10/26 11:32:41;;;;;;;;;;;;;;;15.46;84.94;100533.63;5033505;28;1955;-63
2022/10/26 11:35:18;;;;;;;;;;;;;;;15.47;85.06;100538.03;5033472;28;1166;-63
2022/10/26 11:38:00;;;;;;;;;;;;;;;15.48;85.13;100531.38;5033276;28;846;-63
2022/10/26 11:40:41;;;;;;;;;;;;;;;15.46;84.78;100526.16;5031858;28;1294;-63
2022/10/26 11:43:20;;;;;;;;;;;;;;;15.47;84.97;100525.03;5031580;28;1384;-63
2022/10/26 11:45:56;;;;;;;;;;;;;;;15.49;84.59;100535.75;5031438;28;1599;-63
2022/10/26 11:48:33;;;;;;;;;;;;;;;15.49;84.60;100525.53;5030978;28;1266;-63
2022/10/26 11:50:58;;;;;;;;;;;;;;;15.50;84.88;100520.81;5033433;28;849;-63
2022/10/26 11:53:26;;;;;;;;;;;;;;;15.52;84.81;100524.09;5033271;28;1886;-63
2022/10/26 11:55:53;;;;;;;;;;;;;;;15.51;84.92;100526.03;5033203;28;880;-63
2022/10/26 11:58:21;;;;;;;;;;;;;;;15.51;84.59;100525.22;5033080;28;821;-64
2022/10/26 12:00:48;;;;;;;;;;;;;;;15.52;84.62;100532.38;5033226;28;1048;-63
2022/10/26 12:03:25;;;;;;;;;;;;;;;15.56;84.54;100535.38;5033037;28;1657;-63
2022/10/26 12:05:51;;;;;;;;;;;;;;;15.57;84.73;100542.53;5032549;28;1376;-62
2022/10/26 12:08:23;;;;;;;;;;;;;;;15.59;84.46;100537.47;5032834;28;1601;-63
2022/10/26 12:10:58;;;;;;;;;;;;;;;15.61;84.48;100541.56;5032744;28;1617;-62
2022/10/26 12:13:30;;;;;;;;;;;;;;;15.61;85.21;100538.81;5032468;28;1961;-63
2022/10/26 12:16:28;;;;;;;;;;;;;;;15.63;84.69;100532.97;5030470;28;1320;-62
2022/10/26 12:18:57;;;;;;;;;;;;;;;15.62;84.26;100532.16;5004335;28;1393;-63
2022/10/26 12:21:27;;;;;;;;;;;;;;;15.64;84.38;100534.63;5032611;28;1340;-63
2022/10/26 12:23:57;;;;;;;;;;;;;;;15.64;84.65;100543.72;5030114;28;1573;-63
2022/10/26 12:26:22;;;;;;;;;;;;;;;15.67;84.25;100547.75;5032146;28;1636;-64
2022/10/26 12:28:48;;;;;;;;;;;;;;;15.66;84.41;100549.72;5032439;28;1336;-61
2022/10/26 12:31:32;;;;;;;;;;;;;;;15.67;84.12;100550.53;5032378;28;1392;-63
2022/10/26 12:33:58;;;;;;;;;;;;;;;15.66;84.18;100544.19;5030614;28;1894;-64
2022/10/26 12:36:42;;;;;;;;;;;;;;;15.66;84.22;100549.72;5032029;28;1596;-64
2022/10/26 12:39:25;;;;;;;;;;;;;;;15.68;84.25;100549.41;5032195;28;1230;-64
2022/10/26 12:41:56;;;;;;;;;;;;;;;15.67;84.22;100551.34;5032693;28;1142;-63
2022/10/26 12:44:30;;;;;;;;;;;;;;;15.67;83.86;100556.84;5032750;28;1258;-63
2022/10/26 12:46:55;;;;;;;;;;;;;;;15.69;84.23;100542.75;5032686;28;837;-63
2022/10/26 12:49:40;;;;;;;;;;;;;;;15.69;84.46;100546.34;5032745;28;794;-63
2022/10/26 12:52:16;;;;;;;;;;;;;;;15.72;84.01;100561.47;5032614;28;1898;-63
2022/10/26 12:54:47;;;;;;;;;;;;;;;15.74;84.03;100561.94;5032698;28;1211;-63
2022/10/26 12:57:19;;;;;;;;;;;;;;;15.75;84.35;100560.81;5032314;28;1012;-62